Time;durP1;ratioP1;P1;durP2;ratioP2;P2;SDS_P1;SDS_P2;PMS_P1;PMS_P2;Temp;Humidity;BMP_temperature;BMP_pressure;BME280_temperature;BME280_humidity;BME280_pressure;Samples;Min_cycle;Max_cycle;Signal;HPM_P1;HPM_P2
2023/05/29 00:00:26;;;;;;;12.57;7.57;;;11.30;99.90;;;;;;5009647;28;20022;-82
2023/05/29 00:02:51;;;;;;;15.67;8.73;;;11.30;99.90;;;;;;5008943;28;20398;-82
2023/05/29 00:05:17;;;;;;;13.43;8.00;;;11.20;99.90;;;;;;5010262;28;20088;-82
2023/05/29 00:07:43;;;;;;;16.47;8.13;;;11.20;99.90;;;;;;5010165;28;20040;-82
2023/05/29 00:10:11;;;;;;;13.57;8.10;;;11.20;99.90;;;;;;5008619;28;20037;-82
2023/05/29 00:12:37;;;;;;;13.63;7.93;;;11.20;99.90;;;;;;5008831;28;20223;-82
2023/05/29 00:15:04;;;;;;;18.10;8.13;;;11.20;99.90;;;;;;5013110;28;20045;-82
2023/05/29 00:17:31;;;;;;;14.03;7.43;;;11.10;99.90;;;;;;5012464;28;20089;-81
2023/05/29 00:20:02;;;;;;;13.23;8.10;;;11.10;99.90;;;;;;5011400;28;20029;-82
2023/05/29 00:22:28;;;;;;;14.73;7.90;;;11.10;99.90;;;;;;5013595;28;20123;-82
2023/05/29 00:24:53;;;;;;;14.30;6.97;;;11.00;99.90;;;;;;5013573;28;20037;-82
2023/05/29 00:27:19;;;;;;;13.87;7.73;;;11.00;99.90;;;;;;5012451;28;20083;-82
2023/05/29 00:29:46;;;;;;;11.97;7.50;;;10.90;99.90;;;;;;5010223;28;20053;-82
2023/05/29 00:32:11;;;;;;;11.73;7.40;;;10.90;99.90;;;;;;5013171;28;20072;-82
2023/05/29 00:34:37;;;;;;;14.90;7.60;;;10.80;99.90;;;;;;5011938;28;20529;-81
2023/05/29 00:37:02;;;;;;;13.18;8.13;;;10.80;99.90;;;;;;5012091;28;20719;-82
2023/05/29 00:39:28;;;;;;;14.10;7.33;;;10.70;99.90;;;;;;5010262;28;20505;-82
2023/05/29 00:41:54;;;;;;;14.10;7.60;;;10.70;99.90;;;;;;5012465;28;20030;-81
2023/05/29 00:44:22;;;;;;;13.60;8.30;;;10.70;99.90;;;;;;5012348;28;20045;-82
2023/05/29 00:46:50;;;;;;;11.87;7.57;;;10.70;99.90;;;;;;5011959;28;20025;-82
2023/05/29 00:49:16;;;;;;;14.57;8.33;;;10.60;99.90;;;;;;5011411;28;20053;-82
2023/05/29 00:51:43;;;;;;;13.07;7.60;;;10.60;99.90;;;;;;5012235;28;20037;-82
2023/05/29 00:54:12;;;;;;;13.77;8.50;;;10.50;99.90;;;;;;5073721;22;20073;-82
2023/05/29 00:56:44;;;;;;;13.50;9.10;;;10.50;99.90;;;;;;5021583;28;20102;-83
2023/05/29 00:59:11;;;;;;;14.73;8.17;;;10.40;99.90;;;;;;5042421;28;20040;-81
2023/05/29 01:01:37;;;;;;;13.23;8.13;;;10.40;99.90;;;;;;5047471;28;20049;-84
2023/05/29 01:04:08;;;;;;;14.60;8.47;;;10.40;99.90;;;;;;5046563;28;20036;-82
2023/05/29 01:06:33;;;;;;;13.40;7.30;;;10.40;99.90;;;;;;5046743;28;20026;-81
2023/05/29 01:08:59;;;;;;;14.97;8.43;;;10.30;99.90;;;;;;5043695;28;20724;-83
2023/05/29 01:12:08;;;;;;;15.53;8.40;;;10.30;99.90;;;;;;5039585;28;20028;-83
2023/05/29 01:15:01;;;;;;;13.63;7.77;;;10.30;99.90;;;;;;5039312;28;20036;-83
2023/05/29 01:17:39;;;;;;;14.43;8.10;;;10.20;99.90;;;;;;5041256;28;20103;-83
2023/05/29 01:20:27;;;;;;;15.47;8.97;;;10.20;99.90;;;;;;5041818;28;20033;-83
2023/05/29 01:23:10;;;;;;;13.33;8.27;;;10.20;99.90;;;;;;5041811;28;21409;-83
2023/05/29 01:25:50;;;;;;;11.97;7.73;;;10.10;99.90;;;;;;5039957;28;20916;-83
2023/05/29 01:28:19;;;;;;;14.33;8.73;;;10.10;99.90;;;;;;5040902;28;20061;-83
2023/05/29 01:30:46;;;;;;;12.53;7.33;;;10.00;99.90;;;;;;5041132;28;20052;-83
2023/05/29 01:33:12;;;;;;;14.07;8.13;;;10.00;99.90;;;;;;5039222;28;20045;-83
2023/05/29 01:35:37;;;;;;;15.90;7.90;;;10.00;99.90;;;;;;5038788;28;20017;-83
2023/05/29 01:38:03;;;;;;;15.00;9.20;;;9.90;99.90;;;;;;5038306;28;20028;-83
2023/05/29 01:40:28;;;;;;;14.57;8.00;;;9.90;99.90;;;;;;5040251;28;20021;-82
2023/05/29 01:42:55;;;;;;;13.73;8.70;;;9.90;99.90;;;;;;5040460;28;20035;-83
2023/05/29 01:45:20;;;;;;;14.80;8.67;;;9.90;99.90;;;;;;5038636;28;20037;-83
2023/05/29 01:47:46;;;;;;;14.57;8.30;;;9.90;99.90;;;;;;5036731;28;20106;-83
2023/05/29 01:50:14;;;;;;;13.37;8.30;;;9.90;99.90;;;;;;5038418;28;20053;-83
2023/05/29 01:52:40;;;;;;;14.57;8.57;;;9.90;99.90;;;;;;5039453;28;20055;-83
2023/05/29 01:55:06;;;;;;;13.13;8.20;;;9.90;99.90;;;;;;5038456;28;20022;-83
2023/05/29 01:57:32;;;;;;;14.90;8.17;;;9.90;99.90;;;;;;5038620;28;20040;-83
2023/05/29 01:59:58;;;;;;;12.77;7.70;;;9.80;99.90;;;;;;5038556;28;20044;-84
2023/05/29 02:02:24;;;;;;;15.93;8.27;;;9.80;99.90;;;;;;5038705;28;20036;-83
2023/05/29 02:04:49;;;;;;;14.63;8.53;;;9.80;99.90;;;;;;5038749;28;20029;-83
2023/05/29 02:07:15;;;;;;;13.90;8.77;;;9.80;99.90;;;;;;5038556;28;20033;-84
2023/05/29 02:09:41;;;;;;;13.83;9.20;;;9.70;99.90;;;;;;5020355;28;20158;-83
2023/05/29 02:12:07;;;;;;;12.67;8.37;;;9.60;99.90;;;;;;5039111;28;20033;-83
2023/05/29 02:14:33;;;;;;;16.60;8.40;;;9.60;99.90;;;;;;5038396;28;20060;-83
2023/05/29 02:16:59;;;;;;;15.67;8.33;;;9.60;99.90;;;;;;5037077;28;20465;-83
2023/05/29 02:19:27;;;;;;;15.87;8.43;;;9.50;99.90;;;;;;5037877;28;20139;-84
2023/05/29 02:21:54;;;;;;;17.47;9.00;;;9.50;99.90;;;;;;5039394;28;20035;-82
2023/05/29 02:24:20;;;;;;;14.10;7.90;;;9.40;99.90;;;;;;5038045;28;20030;-84
2023/05/29 02:26:47;;;;;;;12.73;8.20;;;9.40;99.90;;;;;;5037786;28;20025;-83
2023/05/29 02:29:13;;;;;;;14.20;8.43;;;9.40;99.90;;;;;;5038718;28;20068;-84
2023/05/29 02:31:38;;;;;;;13.53;8.17;;;9.40;99.90;;;;;;5039581;28;20057;-84
2023/05/29 02:34:04;;;;;;;15.87;8.50;;;9.40;99.90;;;;;;5038584;28;20041;-83
2023/05/29 02:36:29;;;;;;;15.93;7.67;;;9.40;99.90;;;;;;5038442;28;20036;-83
2023/05/29 02:38:55;;;;;;;14.27;8.40;;;9.30;99.90;;;;;;5037281;28;20047;-83
2023/05/29 02:41:20;;;;;;;13.97;8.70;;;9.30;99.90;;;;;;5038741;28;20041;-82
2023/05/29 02:43:46;;;;;;;13.50;8.60;;;9.30;99.90;;;;;;5037263;28;20056;-83
2023/05/29 02:46:11;;;;;;;16.03;8.80;;;9.30;99.90;;;;;;5033724;28;20151;-84
2023/05/29 02:48:39;;;;;;;15.10;8.43;;;9.30;99.90;;;;;;5035350;28;20159;-83
2023/05/29 02:51:05;;;;;;;13.17;8.20;;;9.30;99.90;;;;;;5035873;28;20025;-83
2023/05/29 02:53:31;;;;;;;13.30;8.17;;;9.20;99.90;;;;;;5035572;28;20040;-82
2023/05/29 02:55:56;;;;;;;14.83;9.10;;;9.20;99.90;;;;;;5034052;28;20026;-83
2023/05/29 02:58:22;;;;;;;15.57;8.43;;;9.20;99.90;;;;;;5033976;28;20034;-82
2023/05/29 03:00:47;;;;;;;17.23;9.53;;;9.20;99.90;;;;;;5033458;28;20092;-83
2023/05/29 03:03:13;;;;;;;13.87;8.73;;;9.20;99.90;;;;;;5032284;28;20036;-83
2023/05/29 03:05:38;;;;;;;14.87;8.53;;;9.10;99.90;;;;;;5034777;28;20033;-82
2023/05/29 03:08:04;;;;;;;13.97;8.50;;;9.10;99.90;;;;;;5039044;28;20033;-83
2023/05/29 03:10:30;;;;;;;14.27;8.17;;;9.00;99.90;;;;;;5040261;28;20056;-84
2023/05/29 03:12:55;;;;;;;12.73;8.47;;;9.00;99.90;;;;;;5039310;28;20039;-84
2023/05/29 03:15:21;;;;;;;16.50;8.47;;;9.00;99.90;;;;;;5037315;28;20029;-83
2023/05/29 03:17:46;;;;;;;14.07;8.60;;;9.00;99.90;;;;;;5036998;28;20032;-84
2023/05/29 03:20:13;;;;;;;15.33;9.20;;;8.90;99.90;;;;;;5036706;28;20072;-83
2023/05/29 03:22:38;;;;;;;12.97;8.30;;;8.90;99.90;;;;;;5036945;28;20029;-83
2023/05/29 03:25:04;;;;;;;17.83;8.30;;;8.90;99.90;;;;;;5036280;28;20187;-82
2023/05/29 03:27:30;;;;;;;15.77;8.43;;;8.90;99.90;;;;;;5038153;28;20105;-83
2023/05/29 03:29:56;;;;;;;17.40;8.70;;;8.90;99.90;;;;;;5036311;28;20068;-83
2023/05/29 03:32:21;;;;;;;18.10;8.80;;;8.90;99.90;;;;;;5036478;28;20100;-84
2023/05/29 03:34:48;;;;;;;15.77;8.23;;;8.90;99.90;;;;;;5033814;28;20040;-83
2023/05/29 03:37:14;;;;;;;14.80;8.77;;;8.80;99.90;;;;;;5037078;28;20029;-83
2023/05/29 03:39:39;;;;;;;15.93;8.37;;;8.90;99.90;;;;;;5037540;28;20037;-83
2023/05/29 03:42:05;;;;;;;15.67;9.10;;;8.90;99.90;;;;;;5038086;28;20168;-83
2023/05/29 03:44:31;;;;;;;14.13;8.63;;;8.90;99.90;;;;;;5018431;28;20045;-84
2023/05/29 03:46:56;;;;;;;15.63;9.20;;;8.90;99.90;;;;;;5036786;28;20048;-82
2023/05/29 03:49:22;;;;;;;15.60;8.97;;;8.80;99.90;;;;;;5040871;28;20034;-83
2023/05/29 03:51:47;;;;;;;16.07;9.43;;;8.80;99.90;;;;;;5041641;28;20040;-84
2023/05/29 03:54:13;;;;;;;16.33;9.77;;;8.90;99.90;;;;;;5040546;28;20041;-83
2023/05/29 03:56:38;;;;;;;14.67;8.70;;;8.80;99.90;;;;;;5043875;28;20026;-83
2023/05/29 03:59:04;;;;;;;15.03;8.90;;;8.90;99.90;;;;;;5041366;28;20032;-83
2023/05/29 04:01:29;;;;;;;14.80;9.27;;;8.90;99.90;;;;;;5040656;28;20029;-83
2023/05/29 04:03:55;;;;;;;18.00;8.80;;;8.90;99.90;;;;;;5039531;28;20872;-83
2023/05/29 04:06:21;;;;;;;14.87;8.60;;;9.00;99.90;;;;;;5039421;28;20828;-83
2023/05/29 04:08:47;;;;;;;14.43;9.17;;;9.00;99.90;;;;;;5038944;28;20167;-83
2023/05/29 04:11:13;;;;;;;14.20;8.80;;;9.00;99.90;;;;;;5040076;28;20104;-83
2023/05/29 04:13:39;;;;;;;13.33;7.93;;;9.10;99.90;;;;;;5040597;28;20025;-84
2023/05/29 04:16:05;;;;;;;14.50;9.13;;;9.10;99.90;;;;;;5040589;28;20025;-83
2023/05/29 04:18:30;;;;;;;15.10;9.30;;;9.20;99.90;;;;;;5038625;28;20111;-83
2023/05/29 04:20:56;;;;;;;15.10;8.07;;;9.20;99.90;;;;;;5040427;28;20032;-83
2023/05/29 04:23:22;;;;;;;14.27;8.27;;;9.20;99.90;;;;;;5039605;28;20033;-83
2023/05/29 04:25:50;;;;;;;13.30;8.47;;;9.20;99.90;;;;;;5039712;28;20037;-83
2023/05/29 04:28:16;;;;;;;13.83;8.50;;;9.30;99.90;;;;;;5037927;28;20130;-83
2023/05/29 04:30:42;;;;;;;13.13;8.43;;;9.30;99.90;;;;;;5039833;28;20041;-83
2023/05/29 04:33:09;;;;;;;13.60;8.67;;;9.30;99.90;;;;;;5039227;28;20648;-83
2023/05/29 04:35:35;;;;;;;14.40;8.00;;;9.40;99.90;;;;;;5040122;28;20115;-84
2023/05/29 04:38:01;;;;;;;15.80;8.77;;;9.50;99.90;;;;;;5040226;28;20112;-83
2023/05/29 04:40:26;;;;;;;14.57;8.67;;;9.60;99.90;;;;;;5039352;28;20090;-83
2023/05/29 04:42:52;;;;;;;18.13;8.93;;;9.60;99.90;;;;;;5041371;28;20022;-80
2023/05/29 04:45:20;;;;;;;15.53;9.10;;;9.70;99.90;;;;;;5038775;28;20099;-86
2023/05/29 04:47:46;;;;;;;11.63;8.03;;;9.80;99.90;;;;;;5039963;28;20130;-85
2023/05/29 04:50:16;;;;;;;14.27;8.63;;;9.90;99.90;;;;;;5040059;28;20029;-83
2023/05/29 04:52:43;;;;;;;14.17;8.90;;;10.00;99.90;;;;;;5041288;28;20976;-84
2023/05/29 04:55:08;;;;;;;14.47;8.73;;;10.00;99.90;;;;;;5040900;28;20649;-82
2023/05/29 04:57:34;;;;;;;12.13;8.17;;;10.20;99.90;;;;;;5040315;28;20036;-82
2023/05/29 05:00:00;;;;;;;16.57;8.10;;;10.20;99.90;;;;;;5041665;28;20524;-86
2023/05/29 05:02:25;;;;;;;14.63;8.47;;;10.30;99.90;;;;;;5039254;28;20528;-71
2023/05/29 05:04:51;;;;;;;13.47;8.33;;;10.50;99.90;;;;;;5034907;28;20055;-80
2023/05/29 05:07:16;;;;;;;12.63;7.87;;;10.50;99.90;;;;;;5035448;28;20594;-80
2023/05/29 05:09:42;;;;;;;17.13;9.03;;;10.60;99.90;;;;;;5035696;28;20056;-80
2023/05/29 05:12:08;;;;;;;13.27;8.53;;;10.70;99.90;;;;;;5036431;28;20937;-80
2023/05/29 05:14:34;;;;;;;16.60;8.73;;;10.90;99.90;;;;;;5035359;28;20043;-79
2023/05/29 05:17:00;;;;;;;16.67;9.43;;;11.00;99.90;;;;;;5036983;28;20045;-81
2023/05/29 05:19:25;;;;;;;13.17;8.37;;;11.10;99.90;;;;;;5035644;28;20033;-80
2023/05/29 05:21:51;;;;;;;12.87;9.27;;;11.20;99.90;;;;;;5035190;28;20026;-80
2023/05/29 05:24:16;;;;;;;14.87;9.13;;;11.40;99.90;;;;;;5035740;28;20049;-81
2023/05/29 05:26:42;;;;;;;15.30;8.75;;;11.60;99.90;;;;;;5036452;28;20052;-79
2023/05/29 05:29:07;;;;;;;16.27;8.60;;;11.70;99.90;;;;;;5036293;28;20032;-79
2023/05/29 05:31:33;;;;;;;13.33;8.17;;;11.90;99.90;;;;;;5037231;28;20021;-80
2023/05/29 05:33:58;;;;;;;15.00;8.80;;;12.10;99.90;;;;;;5035581;28;21096;-80
2023/05/29 05:36:24;;;;;;;15.02;9.18;;;12.20;99.90;;;;;;5036915;28;20041;-80
2023/05/29 05:38:50;;;;;;;14.98;9.80;;;12.40;99.90;;;;;;5037345;28;20030;-80
2023/05/29 05:41:15;;;;;;;13.75;8.30;;;12.60;99.90;;;;;;5032964;28;20160;-74
2023/05/29 05:43:41;;;;;;;14.90;8.27;;;12.80;99.90;;;;;;5030839;28;20021;-74
2023/05/29 05:46:07;;;;;;;12.35;8.18;;;12.90;99.90;;;;;;5031222;28;20021;-74
2023/05/29 05:48:32;;;;;;;14.93;8.57;;;13.10;99.90;;;;;;5031206;28;20127;-76
2023/05/29 05:50:58;;;;;;;13.25;8.25;;;13.20;99.90;;;;;;5031473;28;20045;-74
2023/05/29 05:53:24;;;;;;;12.35;8.00;;;13.40;99.90;;;;;;5031743;28;20036;-74
2023/05/29 05:55:49;;;;;;;19.40;9.00;;;13.60;99.90;;;;;;5029164;28;20396;-74
2023/05/29 05:58:15;;;;;;;11.23;7.22;;;13.70;99.90;;;;;;5030753;28;20513;-75
2023/05/29 06:00:42;;;;;;;14.00;8.40;;;13.90;99.90;;;;;;5031443;28;20021;-74
2023/05/29 06:03:07;;;;;;;13.50;7.95;;;14.10;99.90;;;;;;5030494;28;20100;-75
2023/05/29 06:05:34;;;;;;;13.10;7.45;;;14.20;99.90;;;;;;5031810;28;21033;-74
2023/05/29 06:07:59;;;;;;;15.07;8.18;;;14.40;99.90;;;;;;5030996;28;20603;-74
2023/05/29 06:10:25;;;;;;;15.80;8.10;;;14.50;99.90;;;;;;5030373;28;20040;-74
2023/05/29 06:12:51;;;;;;;12.68;7.78;;;14.70;99.90;;;;;;5029856;28;20040;-74
2023/05/29 06:15:17;;;;;;;12.73;8.80;;;14.90;99.90;;;;;;5030107;28;20026;-74
2023/05/29 06:17:43;;;;;;;13.48;7.90;;;15.00;99.90;;;;;;5030996;28;20446;-74
2023/05/29 06:20:10;;;;;;;22.75;14.35;;;15.10;99.90;;;;;;5030852;28;20029;-73
2023/05/29 06:22:38;;;;;;;13.68;8.18;;;15.30;99.90;;;;;;5029084;28;20072;-74
2023/05/29 06:25:04;;;;;;;13.15;7.85;;;15.40;99.90;;;;;;5030480;28;20080;-73
2023/05/29 06:27:30;;;;;;;13.73;6.85;;;15.60;99.90;;;;;;5031179;28;20033;-74
2023/05/29 06:29:55;;;;;;;13.68;7.53;;;15.80;99.90;;;;;;5030015;28;20159;-74
2023/05/29 06:32:22;;;;;;;11.55;7.75;;;16.00;99.90;;;;;;5027514;28;20117;-73
2023/05/29 06:34:47;;;;;;;12.40;7.35;;;16.10;99.90;;;;;;5029981;28;20033;-73
2023/05/29 06:37:13;;;;;;;12.80;6.97;;;16.20;99.90;;;;;;5030351;28;20472;-73
2023/05/29 06:39:41;;;;;;;15.77;8.20;;;16.40;99.90;;;;;;5029230;28;20037;-73
2023/05/29 06:42:07;;;;;;;11.63;6.97;;;16.50;99.90;;;;;;5030307;28;20086;-73
2023/05/29 06:44:33;;;;;;;11.38;7.32;;;16.70;99.90;;;;;;5031737;28;20123;-73
2023/05/29 06:46:59;;;;;;;11.55;7.03;;;16.70;99.90;;;;;;5031498;28;20488;-73
2023/05/29 06:49:24;;;;;;;12.25;7.57;;;16.90;99.90;;;;;;5026604;28;20041;-73
2023/05/29 06:51:50;;;;;;;12.00;7.22;;;17.00;99.90;;;;;;5028726;28;20025;-73
2023/05/29 06:54:16;;;;;;;12.55;7.00;;;17.10;99.90;;;;;;5044437;22;20050;-77
2023/05/29 06:56:41;;;;;;;10.52;6.88;;;17.20;99.90;;;;;;4999945;28;20687;-77
2023/05/29 06:59:07;;;;;;;10.43;6.97;;;17.30;99.90;;;;;;5000324;28;20030;-80
2023/05/29 07:01:32;;;;;;;10.20;6.50;;;17.40;99.90;;;;;;5001431;28;20068;-78
2023/05/29 07:03:58;;;;;;;9.63;5.72;;;17.50;99.90;;;;;;5000559;28;20104;-81
2023/05/29 07:06:23;;;;;;;11.10;5.75;;;17.50;99.90;;;;;;4999541;28;20669;-79
2023/05/29 07:08:49;;;;;;;12.23;6.38;;;17.60;99.90;;;;;;5003987;28;20041;-77
2023/05/29 07:11:15;;;;;;;12.55;7.13;;;17.70;99.90;;;;;;5001075;28;20105;-78
2023/05/29 07:13:40;;;;;;;10.60;5.93;;;17.80;99.90;;;;;;5003024;28;20034;-77
2023/05/29 07:16:06;;;;;;;10.93;6.00;;;17.90;99.90;;;;;;5001892;28;20037;-77
2023/05/29 07:18:31;;;;;;;12.95;5.65;;;17.90;99.90;;;;;;5000383;28;20038;-77
2023/05/29 07:20:57;;;;;;;10.55;5.93;;;17.90;99.90;;;;;;5002241;28;20686;-77
2023/05/29 07:23:24;;;;;;;12.65;6.32;;;17.90;99.90;;;;;;5000163;28;20038;-77
2023/05/29 07:25:50;;;;;;;10.45;6.00;;;18.00;99.90;;;;;;4995600;28;20730;-76
2023/05/29 07:28:15;;;;;;;12.55;7.15;;;18.00;99.90;;;;;;4996850;28;20126;-77
2023/05/29 07:30:41;;;;;;;12.25;6.45;;;18.10;99.90;;;;;;4997165;28;20043;-78
2023/05/29 07:33:06;;;;;;;12.20;6.55;;;18.20;99.90;;;;;;4994918;28;20068;-79
2023/05/29 07:35:33;;;;;;;15.32;6.65;;;18.30;99.90;;;;;;4994021;28;20034;-79
2023/05/29 07:37:59;;;;;;;12.35;7.10;;;18.40;99.90;;;;;;4996615;28;20757;-78
2023/05/29 07:40:25;;;;;;;11.52;5.78;;;18.40;99.90;;;;;;4995568;28;20038;-78
2023/05/29 07:42:50;;;;;;;10.27;6.30;;;18.50;99.90;;;;;;4993929;28;20990;-76
2023/05/29 07:45:16;;;;;;;11.82;6.53;;;18.50;99.90;;;;;;4995951;28;20025;-81
2023/05/29 07:47:41;;;;;;;8.55;5.82;;;18.60;99.90;;;;;;5002017;28;20037;-78
2023/05/29 07:50:08;;;;;;;12.05;6.45;;;18.60;99.90;;;;;;5003508;28;20480;-84
2023/05/29 07:52:34;;;;;;;10.98;6.50;;;18.50;99.90;;;;;;5002813;28;20036;-81
2023/05/29 07:55:01;;;;;;;10.38;6.50;;;18.50;99.90;;;;;;5005157;28;20865;-78
2023/05/29 07:57:27;;;;;;;12.85;6.80;;;18.50;99.90;;;;;;5005708;28;21361;-76
2023/05/29 07:59:53;;;;;;;10.85;6.47;;;18.50;99.90;;;;;;5004826;28;20041;-77
2023/05/29 08:02:19;;;;;;;10.30;6.07;;;18.60;99.90;;;;;;5005102;28;20556;-75
2023/05/29 08:04:45;;;;;;;12.85;6.47;;;18.70;99.90;;;;;;5002628;28;20929;-78
2023/05/29 08:07:10;;;;;;;10.98;6.38;;;18.80;99.90;;;;;;5003701;28;20080;-75
2023/05/29 08:09:36;;;;;;;8.10;5.68;;;18.80;99.90;;;;;;5002918;28;20621;-77
2023/05/29 08:12:02;;;;;;;10.55;6.43;;;18.80;99.90;;;;;;5002500;28;20565;-76
2023/05/29 08:14:27;;;;;;;12.07;6.07;;;18.80;99.90;;;;;;5001793;28;20761;-86
2023/05/29 08:16:53;;;;;;;10.73;6.13;;;18.90;99.90;;;;;;5000828;28;20411;-74
2023/05/29 08:19:18;;;;;;;9.30;5.72;;;19.00;99.90;;;;;;5004692;28;20033;-76
2023/05/29 08:21:44;;;;;;;14.35;5.95;;;19.10;99.90;;;;;;5005225;28;20080;-76
2023/05/29 08:24:10;;;;;;;12.90;6.25;;;19.10;99.90;;;;;;5003999;28;20037;-78
2023/05/29 08:26:35;;;;;;;11.52;6.03;;;19.20;99.90;;;;;;5003483;28;20212;-76
2023/05/29 08:29:01;;;;;;;10.13;5.80;;;19.20;99.90;;;;;;5003025;28;20041;-77
2023/05/29 08:31:27;;;;;;;10.30;6.05;;;19.30;99.90;;;;;;5001486;28;20034;-74
2023/05/29 08:33:53;;;;;;;12.30;5.78;;;19.40;99.90;;;;;;5002150;28;20054;-77
2023/05/29 08:36:21;;;;;;;9.68;6.53;;;19.30;99.90;;;;;;5005597;28;20142;-76
2023/05/29 08:38:50;;;;;;;13.77;5.60;;;19.30;99.90;;;;;;5004698;28;20087;-87
2023/05/29 08:41:30;;;;;;;10.13;5.90;;;19.40;99.90;;;;;;5005154;28;20422;-78
2023/05/29 08:43:57;;;;;;;9.02;5.68;;;19.50;99.90;;;;;;4996375;28;21994;-85
2023/05/29 08:46:24;;;;;;;10.02;5.47;;;19.50;99.90;;;;;;4995507;28;20091;-91
2023/05/29 08:48:51;;;;;;;12.90;5.60;;;19.60;99.90;;;;;;4998136;28;21039;-85
2023/05/29 08:51:20;;;;;;;10.32;5.82;;;19.80;99.90;;;;;;5008616;28;20028;-84
2023/05/29 08:53:47;;;;;;;9.73;5.57;;;19.80;99.90;;;;;;5008186;28;20040;-83
2023/05/29 08:56:12;;;;;;;11.23;6.28;;;19.80;99.90;;;;;;5007341;28;20045;-85
2023/05/29 08:58:38;;;;;;;11.68;5.65;;;19.90;99.90;;;;;;5007825;28;20029;-85
2023/05/29 09:01:04;;;;;;;9.48;6.15;;;20.00;99.90;;;;;;5008019;28;20040;-85
2023/05/29 09:03:30;;;;;;;12.88;6.93;;;20.10;99.90;;;;;;5007185;28;20096;-84
2023/05/29 09:06:00;;;;;;;10.10;5.68;;;20.20;99.90;;;;;;5005495;28;20088;-84
2023/05/29 09:08:27;;;;;;;12.52;5.97;;;20.30;99.90;;;;;;5005155;28;20272;-84
2023/05/29 09:10:52;;;;;;;9.68;5.93;;;20.40;99.90;;;;;;5006744;28;20571;-85
2023/05/29 09:13:18;;;;;;;11.18;5.80;;;20.40;99.90;;;;;;5006997;28;20129;-84
2023/05/29 09:15:43;;;;;;;10.32;6.25;;;20.50;99.90;;;;;;5006236;28;20179;-84
2023/05/29 09:18:09;;;;;;;12.25;5.57;;;20.60;99.90;;;;;;5005122;28;20109;-85
2023/05/29 09:20:35;;;;;;;9.30;5.50;;;20.80;99.90;;;;;;5004836;28;20088;-85
2023/05/29 09:23:03;;;;;;;9.23;5.57;;;20.90;99.90;;;;;;5006379;28;20037;-84
2023/05/29 09:25:30;;;;;;;10.10;5.38;;;21.00;99.90;;;;;;5005304;28;20041;-84
2023/05/29 09:27:58;;;;;;;9.00;5.15;;;21.10;99.90;;;;;;5008071;28;21455;-86
2023/05/29 09:30:34;;;;;;;9.40;5.63;;;21.40;99.90;;;;;;5006084;28;20034;-84
2023/05/29 09:33:01;;;;;;;7.65;5.10;;;21.70;99.90;;;;;;5007775;28;20451;-84
2023/05/29 09:35:36;;;;;;;6.93;4.82;;;21.70;99.90;;;;;;5008453;28;20450;-84
2023/05/29 09:38:02;;;;;;;12.32;5.20;;;21.90;99.90;;;;;;5008892;28;20182;-85
2023/05/29 09:40:36;;;;;;;10.20;5.53;;;22.10;99.90;;;;;;5008862;28;20084;-84
2023/05/29 09:43:12;;;;;;;10.55;5.15;;;22.50;99.90;;;;;;5009867;28;20038;-84
2023/05/29 09:45:39;;;;;;;11.40;5.63;;;22.60;99.90;;;;;;5008143;28;20982;-84
2023/05/29 09:48:11;;;;;;;10.35;5.40;;;22.90;99.90;;;;;;5007499;28;20093;-85
2023/05/29 09:50:39;;;;;;;8.95;4.97;;;23.10;99.90;;;;;;5008821;28;20056;-85
2023/05/29 09:53:19;;;;;;;6.97;5.25;;;23.20;99.90;;;;;;5008360;28;20099;-84
2023/05/29 09:55:50;;;;;;;9.60;4.78;;;23.40;99.90;;;;;;5006672;28;20077;-85
2023/05/29 09:58:17;;;;;;;10.43;5.30;;;23.50;99.90;;;;;;5006598;28;20042;-85
2023/05/29 10:00:43;;;;;;;8.50;5.10;;;23.70;99.90;;;;;;5006199;28;20041;-84
2023/05/29 10:03:12;;;;;;;8.98;5.20;;;23.90;99.90;;;;;;5006666;28;20174;-85
2023/05/29 10:05:41;;;;;;;7.53;4.43;;;23.90;99.90;;;;;;5006588;28;20450;-84
2023/05/29 10:08:13;;;;;;;10.90;4.90;;;23.80;99.90;;;;;;5004521;28;20434;-85
2023/05/29 10:10:42;;;;;;;10.07;5.38;;;23.80;99.90;;;;;;5006700;28;20103;-84
2023/05/29 10:13:14;;;;;;;8.70;4.18;;;24.10;99.90;;;;;;5004929;28;20462;-84
2023/05/29 10:15:42;;;;;;;10.50;4.95;;;24.20;99.90;;;;;;5003455;28;20038;-85
2023/05/29 10:18:26;;;;;;;8.25;4.97;;;24.50;99.90;;;;;;5001667;28;20034;-85
2023/05/29 10:20:55;;;;;;;7.93;4.68;;;24.80;99.90;;;;;;5002138;28;20042;-85
2023/05/29 10:23:25;;;;;;;9.68;4.43;;;24.80;99.90;;;;;;5003541;28;20041;-85
2023/05/29 10:25:53;;;;;;;8.40;5.15;;;24.90;99.90;;;;;;5001898;28;20066;-85
2023/05/29 10:28:20;;;;;;;10.85;4.65;;;25.10;99.90;;;;;;5004052;28;20037;-84
2023/05/29 10:30:54;;;;;;;11.27;4.85;;;25.20;99.90;;;;;;5001495;28;20041;-85
2023/05/29 10:33:37;;;;;;;9.05;4.32;;;25.30;99.60;;;;;;4999627;28;20025;-85
2023/05/29 10:36:21;;;;;;;7.10;4.63;;;25.30;99.90;;;;;;4994397;28;20041;-85
2023/05/29 10:38:48;;;;;;;9.02;4.72;;;25.30;99.90;;;;;;5005079;28;20087;-85
2023/05/29 10:41:30;;;;;;;6.47;4.20;;;25.40;98.60;;;;;;5006944;28;20179;-85
2023/05/29 10:44:00;;;;;;;7.38;4.93;;;25.40;98.00;;;;;;5002486;28;20030;-85
2023/05/29 10:46:49;;;;;;;10.02;4.60;;;25.40;99.10;;;;;;5005730;28;20117;-85
2023/05/29 10:49:16;;;;;;;6.93;4.53;;;25.40;97.30;;;;;;5004076;28;20112;-85
2023/05/29 10:51:42;;;;;;;8.27;4.35;;;25.70;97.50;;;;;;4998885;28;20147;-85
2023/05/29 10:54:07;;;;;;;6.18;4.18;;;25.70;95.60;;;;;;5004755;28;20713;-85
2023/05/29 10:56:33;;;;;;;7.53;4.30;;;25.70;95.20;;;;;;5003957;28;20037;-85
2023/05/29 10:59:01;;;;;;;8.30;4.70;;;25.70;97.00;;;;;;5003927;28;20053;-85
2023/05/29 11:01:30;;;;;;;8.38;5.00;;;25.70;95.90;;;;;;5004310;28;20037;-86
2023/05/29 11:04:17;;;;;;;11.32;4.72;;;25.50;96.30;;;;;;5005363;28;20394;-86
2023/05/29 11:06:44;;;;;;;7.45;4.38;;;25.40;97.20;;;;;;5004362;28;20029;-85
2023/05/29 11:09:29;;;;;;;6.90;4.13;;;25.40;97.20;;;;;;5003572;28;20037;-85
2023/05/29 11:12:35;;;;;;;9.80;4.22;;;25.70;94.60;;;;;;5003622;28;20034;-86
2023/05/29 11:15:06;;;;;;;6.88;4.28;;;25.80;94.80;;;;;;4893526;29;20044;-85
2023/05/29 11:17:37;;;;;;;7.38;4.05;;;25.90;93.10;;;;;;4986443;28;20065;-85
2023/05/29 11:20:08;;;;;;;10.82;4.97;;;26.20;93.40;;;;;;5001400;28;21446;-85
2023/05/29 11:22:53;;;;;;;8.45;4.03;;;26.20;93.60;;;;;;5004092;28;21002;-85
2023/05/29 11:25:20;;;;;;;;;;;26.50;91.30;;;;;;5003649;28;20029;-85
2023/05/29 11:27:45;;;;;;;7.70;4.22;;;26.10;92.60;;;;;;5003570;28;19928;-86
2023/05/29 11:30:11;;;;;;;10.05;4.47;;;26.00;93.60;;;;;;5000510;28;20041;-85
2023/05/29 11:32:40;;;;;;;7.07;4.20;;;25.70;93.40;;;;;;5000792;28;20061;-85
2023/05/29 11:35:10;;;;;;;10.18;4.63;;;25.60;91.60;;;;;;4999374;28;20037;-85
2023/05/29 11:37:37;;;;;;;10.82;4.45;;;25.60;95.20;;;;;;5002168;28;20038;-84
2023/05/29 11:40:05;;;;;;;7.65;4.38;;;25.80;93.20;;;;;;5001407;28;20534;-86
2023/05/29 11:42:31;;;;;;;5.95;3.88;;;26.10;94.40;;;;;;5000359;28;20038;-85
2023/05/29 11:45:19;;;;;;;7.05;4.38;;;26.40;92.30;;;;;;5002409;28;20049;-85
2023/05/29 11:47:55;;;;;;;7.85;4.13;;;26.50;90.60;;;;;;5004090;28;20124;-86
2023/05/29 11:50:25;;;;;;;7.47;4.15;;;26.60;92.70;;;;;;5004257;28;20148;-86
2023/05/29 11:52:53;;;;;;;8.50;4.15;;;26.60;92.60;;;;;;5004276;28;20038;-85
2023/05/29 11:55:20;;;;;;;6.57;4.28;;;26.70;90.70;;;;;;5001816;28;20037;-85
2023/05/29 11:57:47;;;;;;;7.28;4.10;;;26.50;89.60;;;;;;4998323;28;20026;-85
2023/05/29 12:00:18;;;;;;;8.02;4.15;;;26.00;90.60;;;;;;5001115;28;21472;-83
2023/05/29 12:02:46;;;;;;;6.80;4.20;;;25.90;86.50;;;;;;4996944;28;20037;-76
2023/05/29 12:05:14;;;;;;;5.47;3.80;;;26.00;88.80;;;;;;4997789;28;20176;-86
2023/05/29 12:07:48;;;;;;;8.32;4.53;;;25.90;91.40;;;;;;5003140;28;21035;-84
2023/05/29 12:10:18;;;;;;;6.07;4.15;;;26.00;91.90;;;;;;4997173;28;20044;-78
2023/05/29 12:12:51;;;;;;;6.68;3.83;;;26.20;89.90;;;;;;4997592;28;21603;-76
2023/05/29 12:15:18;;;;;;;6.38;3.95;;;26.50;87.10;;;;;;5001611;28;20033;-81
2023/05/29 12:17:44;;;;;;;9.35;4.10;;;26.70;88.10;;;;;;5002104;28;20040;-76
2023/05/29 12:20:11;;;;;;;8.27;4.40;;;27.00;90.20;;;;;;5000377;28;20044;-76
2023/05/29 12:22:38;;;;;;;6.95;4.78;;;27.10;87.60;;;;;;5000771;28;20661;-79
2023/05/29 12:25:12;;;;;;;9.88;4.50;;;27.20;87.70;;;;;;5000131;28;20494;-76
2023/05/29 12:27:42;;;;;;;6.90;4.23;;;27.20;87.20;;;;;;5002720;28;20034;-75
2023/05/29 12:30:14;;;;;;;6.90;4.03;;;27.60;84.90;;;;;;5000204;28;20112;-76
2023/05/29 12:32:41;;;;;;;7.38;4.32;;;27.40;89.40;;;;;;5001006;28;20639;-75
2023/05/29 12:35:29;;;;;;;7.50;4.00;;;27.60;85.70;;;;;;4999630;28;21213;-76
2023/05/29 12:37:56;;;;;;;8.00;4.28;;;27.60;88.30;;;;;;5001644;28;20104;-77
2023/05/29 12:40:23;;;;;;;7.78;4.45;;;27.60;88.10;;;;;;5000130;28;21502;-76
2023/05/29 12:42:57;;;;;;;6.97;3.97;;;27.60;87.10;;;;;;5000242;28;20092;-77
2023/05/29 12:45:26;;;;;;;9.70;3.80;;;27.30;84.10;;;;;;5001025;28;20561;-78